logo dgac
Miércoles 28 de Febrero del 2024
Buscar por aerodromo o helipuerto
Ingrese nombre de aeródromo, localidad o designador OACI:

Aeródromo: Quellón (PUB) (SCON)

Ubicación: Chiloé, X Región, Chile (43º 08' 07'' S, 73º 38' 04'' W) Ver ubicación en el mapa

Pistas

Luces
Orientación Dimensión Pendiente Superficie Resistencia APCH THR RWY PAPI
04/22 1200 X 24 0,80 ASPH PCN 15 F/C/Y/T No No
Horas de operación HJ
Elevación 13 m / 42 ft
Otra Información Adm : DGAC
Uso : PUB
Tel : +56 652486293 Cel +56 961735294
Ubicado : 2 km SW de Quellón
email : aro.quellon@dgac.gob.cl

Otra información ver AIP-Chile Volumen I AD 3.9-3.8-C
CCCM/FCCV Descargar CCCM/FCCV
andera de Chile
Mapa de Quellón (PUB) (SCON)

Último METAR

METAR SCON 272300Z AUTO VRB04KT 9999 -RA FEW013/// SCT020/// OVC028/// 15/14 Q1011

Último TAF

No hay tafs registrados para este aeródromo

Últimas fotos cámaras

Imagen aerodromo Quellón (PUB) (SCON) Sur tomada el 28-02-2024 12:01:52 Imagen aerodromo Quellón (PUB) (SCON) Norte tomada el 28-02-2024 12:01:51

Último NOTAM

C6104/23 NOTAMN Q)SCTZ/QFALT/IV/NBO/A/000/999/4308S07338W005 A)SCON B)2312181759 C)PERM E)FUERA HR SER COORD APERTURA DE PORTONES 2 HR BFR AL CELULAR +56962317620